createdAt,value
2023-03-05T00:01:42.041Z,98868.42
2023-03-05T00:04:12.464Z,98872.77
2023-03-05T00:06:41.815Z,98872.52
2023-03-05T00:09:11.103Z,98880.80
2023-03-05T00:11:44.149Z,98886.33
2023-03-05T00:14:12.974Z,98888.95
2023-03-05T00:16:41.631Z,98891.53
2023-03-05T00:19:14.994Z,98892.87
2023-03-05T00:21:43.791Z,98895.00
2023-03-05T00:24:13.541Z,98887.89
2023-03-05T00:26:43.161Z,98898.23
2023-03-05T00:29:13.530Z,98900.58
2023-03-05T00:31:44.720Z,98901.70
2023-03-05T00:34:14.478Z,98907.46
2023-03-05T00:36:49.190Z,98904.12
2023-03-05T00:39:19.836Z,98908.11
2023-03-05T00:41:50.348Z,98914.02
2023-03-05T00:44:19.217Z,98912.58
2023-03-05T00:46:48.536Z,98917.44
2023-03-05T00:49:22.379Z,98916.92
2023-03-05T00:51:51.140Z,98920.25
2023-03-05T00:54:20.005Z,98923.73
2023-03-05T00:56:49.782Z,98924.48
2023-03-05T00:59:18.750Z,98929.32
2023-03-05T01:01:48.235Z,98933.18
2023-03-05T01:04:18.973Z,98933.53
2023-03-05T01:06:49.102Z,98937.98
2023-03-05T01:09:18.894Z,98943.80
2023-03-05T01:11:47.892Z,98945.17
2023-03-05T01:14:16.736Z,98947.86
2023-03-05T01:16:45.979Z,98947.36
2023-03-05T01:19:15.322Z,98948.57
2023-03-05T01:21:44.144Z,98948.65
2023-03-05T01:24:13.520Z,98948.15
2023-03-05T01:26:42.551Z,98949.27
2023-03-05T01:29:11.396Z,98953.45
2023-03-05T01:31:41.925Z,98950.89
2023-03-05T01:34:10.860Z,98951.25
2023-03-05T01:36:42.048Z,98954.66
2023-03-05T01:39:11.196Z,98959.91
2023-03-05T01:41:40.000Z,98953.52
2023-03-05T01:44:39.432Z,98951.60
2023-03-05T01:47:08.733Z,98956.79
2023-03-05T01:49:39.404Z,98959.96
2023-03-05T01:52:10.864Z,98963.46
2023-03-05T01:54:41.057Z,98962.70
2023-03-05T01:57:14.518Z,98961.95
2023-03-05T01:59:45.570Z,98962.94
2023-03-05T02:02:14.433Z,98963.83
2023-03-05T02:04:44.512Z,98961.62
2023-03-05T02:07:14.365Z,98961.42
2023-03-05T02:09:43.270Z,98963.16
2023-03-05T02:12:13.910Z,98967.73
2023-03-05T02:14:43.640Z,98970.40
2023-03-05T02:17:12.763Z,98973.98
2023-03-05T02:19:55.784Z,98973.92
2023-03-05T02:22:25.292Z,98975.80
2023-03-05T02:24:55.173Z,98970.08
2023-03-05T02:27:25.880Z,98972.70
2023-03-05T02:29:55.886Z,98974.58
2023-03-05T02:32:25.613Z,98978.08
2023-03-05T02:34:54.747Z,98986.09
2023-03-05T02:37:23.992Z,98985.05
2023-03-05T02:39:53.565Z,98986.32
2023-03-05T02:42:24.728Z,98980.77
2023-03-05T02:44:53.554Z,98984.25
2023-03-05T02:47:23.334Z,98980.70
2023-03-05T02:49:52.751Z,98985.90
2023-03-05T02:52:23.540Z,98989.13
2023-03-05T02:54:53.273Z,98988.66
2023-03-05T02:57:22.280Z,98991.16
2023-03-05T02:59:51.403Z,98990.36
2023-03-05T03:02:20.663Z,98988.48
2023-03-05T03:04:51.222Z,98988.94
2023-03-05T03:07:19.980Z,98991.70
2023-03-05T03:09:50.018Z,98987.80
2023-03-05T03:12:19.650Z,98991.11
2023-03-05T03:14:48.375Z,98993.91
2023-03-05T03:17:17.718Z,98996.88
2023-03-05T03:19:46.434Z,98992.95
2023-03-05T03:22:15.467Z,98994.19
2023-03-05T03:24:48.580Z,98995.52
2023-03-05T03:27:17.433Z,98996.52
2023-03-05T03:29:46.531Z,98999.11
2023-03-05T03:32:15.855Z,99004.50
2023-03-05T03:34:49.084Z,99006.59
2023-03-05T03:37:18.007Z,99007.54
2023-03-05T03:39:46.796Z,99005.13
2023-03-05T03:42:19.598Z,99004.84
2023-03-05T03:44:48.350Z,98999.39
2023-03-05T03:47:17.350Z,99008.29
2023-03-05T03:49:46.258Z,99001.70
2023-03-05T03:52:17.882Z,99006.23
2023-03-05T03:54:49.847Z,99003.92
2023-03-05T03:57:18.600Z,99005.83
2023-03-05T03:59:48.119Z,99011.40
2023-03-05T04:02:16.795Z,99011.63
2023-03-05T04:04:45.729Z,99013.88
2023-03-05T04:07:14.448Z,99014.04
2023-03-05T04:09:47.991Z,99012.81
2023-03-05T04:12:18.685Z,99013.22
2023-03-05T04:14:47.885Z,99022.21
2023-03-05T04:17:17.991Z,99015.33
2023-03-05T04:19:47.720Z,99016.23
2023-03-05T04:22:19.115Z,99021.00
2023-03-05T04:24:47.665Z,99022.35
2023-03-05T04:27:16.264Z,99025.59
2023-03-05T04:30:05.312Z,99027.26
2023-03-05T04:32:34.815Z,99031.74
2023-03-05T04:35:03.840Z,99028.36
2023-03-05T04:37:32.772Z,99019.27
2023-03-05T04:40:02.372Z,99023.48
2023-03-05T04:42:31.311Z,99022.73
2023-03-05T04:45:00.011Z,99031.64
2023-03-05T04:47:29.177Z,99029.77
2023-03-05T04:49:57.969Z,99032.48
2023-03-05T04:52:26.851Z,99035.43
2023-03-05T04:54:55.531Z,99029.32
2023-03-05T04:57:24.495Z,99036.19
2023-03-05T04:59:53.274Z,99048.39
2023-03-05T05:02:21.914Z,99045.15
2023-03-05T05:04:54.120Z,99050.23
2023-03-05T05:07:22.933Z,99048.20
2023-03-05T05:09:52.252Z,99051.31
2023-03-05T05:12:21.293Z,99056.45
2023-03-05T05:14:49.969Z,99051.38
2023-03-05T05:17:19.042Z,99052.54
2023-03-05T05:19:55.205Z,99050.73
2023-03-05T05:22:23.955Z,99050.61
2023-03-05T05:24:52.697Z,99049.45
2023-03-05T05:27:21.502Z,99050.65
2023-03-05T05:29:53.534Z,99049.95
2023-03-05T05:32:23.123Z,99050.57
2023-03-05T05:34:55.815Z,99055.56
2023-03-05T05:37:24.650Z,99063.07
2023-03-05T05:39:53.863Z,99062.67
2023-03-05T05:42:23.008Z,99061.55
2023-03-05T05:44:55.814Z,99061.89
2023-03-05T05:47:24.733Z,99059.55
2023-03-05T05:49:53.986Z,99062.55
2023-03-05T05:52:23.122Z,99060.77
2023-03-05T05:54:52.087Z,99063.86
2023-03-05T05:57:20.773Z,99068.67
2023-03-05T05:59:50.198Z,99071.11
2023-03-05T06:02:19.152Z,99071.84
2023-03-05T06:04:47.857Z,99080.55
2023-03-05T06:07:16.463Z,99084.64
2023-03-05T06:09:45.501Z,99084.84
2023-03-05T06:12:15.758Z,99090.17
2023-03-05T06:15:04.483Z,99090.39
2023-03-05T06:17:33.758Z,99096.75
2023-03-05T06:20:07.227Z,99096.31
2023-03-05T06:22:37.391Z,99098.27
2023-03-05T06:25:09.713Z,99101.41
2023-03-05T06:27:38.915Z,99099.49
2023-03-05T06:30:08.162Z,99100.11
2023-03-05T06:32:38.722Z,99105.27
2023-03-05T06:35:08.443Z,99110.59
2023-03-05T06:37:37.613Z,99111.76
2023-03-05T06:40:08.285Z,99120.95
2023-03-05T06:42:37.134Z,99121.96
2023-03-05T06:45:06.934Z,99122.25
2023-03-05T06:47:36.695Z,99122.09
2023-03-05T06:50:06.247Z,99125.78
2023-03-05T06:52:35.992Z,99126.12
2023-03-05T06:55:05.271Z,99126.46
2023-03-05T06:57:36.937Z,99120.29
2023-03-05T07:00:10.612Z,99116.22
2023-03-05T07:02:39.673Z,99126.36
2023-03-05T07:05:08.725Z,99122.52
2023-03-05T07:07:39.762Z,99122.52
2023-03-05T07:10:09.297Z,99123.79
2023-03-05T07:12:44.498Z,99124.52
2023-03-05T07:15:13.717Z,99130.54
2023-03-05T07:17:42.581Z,99129.78
2023-03-05T07:20:11.682Z,99134.43
2023-03-05T07:22:41.692Z,99131.67
2023-03-05T07:25:10.390Z,99141.48
2023-03-05T07:27:39.440Z,99143.04
2023-03-05T07:30:08.686Z,99138.04
2023-03-05T07:32:38.049Z,99141.95
2023-03-05T07:35:07.128Z,99145.38
2023-03-05T07:37:37.003Z,99140.25
2023-03-05T07:40:06.824Z,99136.81
2023-03-05T07:42:39.692Z,99139.09
2023-03-05T07:45:15.701Z,99138.83
2023-03-05T07:47:44.328Z,99135.03
2023-03-05T07:50:13.641Z,99143.31
2023-03-05T07:52:42.429Z,99141.95
2023-03-05T07:55:11.300Z,99144.26
2023-03-05T07:57:40.182Z,99142.54
2023-03-05T08:00:09.358Z,99141.18
2023-03-05T08:02:41.638Z,99139.59
2023-03-05T08:05:10.728Z,99139.75
2023-03-05T08:07:53.044Z,99135.33
2023-03-05T08:10:22.975Z,99143.11
2023-03-05T08:12:51.965Z,99146.61
2023-03-05T08:15:22.553Z,99143.61
2023-03-05T08:17:51.717Z,99148.33
2023-03-05T08:20:20.475Z,99152.45
2023-03-05T08:22:50.050Z,99147.31
2023-03-05T08:25:19.476Z,99153.61
2023-03-05T08:27:49.501Z,99151.02
2023-03-05T08:30:19.235Z,99152.48
2023-03-05T08:32:49.337Z,99155.48
2023-03-05T08:35:18.478Z,99157.05
2023-03-05T08:37:54.566Z,99159.85
2023-03-05T08:40:24.369Z,99162.61
2023-03-05T08:42:53.414Z,99161.34
2023-03-05T08:45:25.104Z,99160.65
2023-03-05T08:47:54.824Z,99160.50
2023-03-05T08:50:26.625Z,99164.28
2023-03-05T08:52:57.482Z,99169.73
2023-03-05T08:55:26.208Z,99173.13
2023-03-05T08:57:54.977Z,99184.33
2023-03-05T09:00:24.110Z,99186.70
2023-03-05T09:02:54.129Z,99177.72
2023-03-05T09:05:24.053Z,99180.01
2023-03-05T09:07:59.274Z,99182.74
2023-03-05T09:10:28.430Z,99178.54
2023-03-05T09:12:57.351Z,99181.35
2023-03-05T09:15:28.416Z,99182.38
2023-03-05T09:18:00.038Z,99180.62
2023-03-05T09:20:29.188Z,99182.14
2023-03-05T09:22:58.507Z,99182.71
2023-03-05T09:25:27.384Z,99188.53
2023-03-05T09:27:56.202Z,99192.45
2023-03-05T09:30:25.342Z,99190.13
2023-03-05T09:32:54.504Z,99196.23
2023-03-05T09:35:23.340Z,99192.49
2023-03-05T09:37:53.135Z,99195.70
2023-03-05T09:40:22.866Z,99193.50
2023-03-05T09:42:59.179Z,99192.27
2023-03-05T09:45:28.688Z,99192.56
2023-03-05T09:47:57.872Z,99196.84
2023-03-05T09:50:33.056Z,99187.91
2023-03-05T09:53:22.796Z,99183.86
2023-03-05T09:55:55.627Z,99179.34
2023-03-05T09:58:24.771Z,99193.09
2023-03-05T10:00:57.150Z,99193.15
2023-03-05T10:03:27.096Z,99190.20
2023-03-05T10:06:00.244Z,99190.62
2023-03-05T10:08:44.851Z,99190.55
2023-03-05T10:11:20.324Z,99187.09
2023-03-05T10:13:51.101Z,99189.41
2023-03-05T10:16:32.354Z,99185.46
2023-03-05T10:19:07.372Z,99187.42
2023-03-05T10:22:05.579Z,99178.80
2023-03-05T10:24:40.328Z,99182.00
2023-03-05T10:27:33.040Z,99184.80
2023-03-05T10:30:21.172Z,99181.77
2023-03-05T10:33:09.782Z,99176.62
2023-03-05T10:35:48.553Z,99179.18
2023-03-05T10:38:23.171Z,99178.16
2023-03-05T10:40:57.434Z,99171.59
2023-03-05T10:43:28.780Z,99171.63
2023-03-05T10:45:58.105Z,99178.63
2023-03-05T10:48:38.790Z,99175.02
2023-03-05T10:51:21.933Z,99173.04
2023-03-05T10:53:53.984Z,99167.96
2023-03-05T10:56:25.449Z,99164.59
2023-03-05T10:58:55.880Z,99164.21
2023-03-05T11:01:25.704Z,99170.31
2023-03-05T11:03:58.752Z,99176.20
2023-03-05T11:06:28.322Z,99177.30
2023-03-05T11:09:09.686Z,99175.90
2023-03-05T11:11:38.496Z,99177.00
2023-03-05T11:14:10.755Z,99185.09
2023-03-05T11:16:49.437Z,99184.46
2023-03-05T11:19:19.433Z,99187.96
2023-03-05T11:22:05.399Z,99183.98
2023-03-05T11:24:34.359Z,99181.89
2023-03-05T11:27:03.387Z,99182.45
2023-03-05T11:29:32.894Z,99184.20
2023-03-05T11:32:20.213Z,99177.17
2023-03-05T11:34:49.182Z,99173.06
2023-03-05T11:37:28.419Z,99175.66
2023-03-05T11:40:16.429Z,99176.50
2023-03-05T11:42:54.164Z,99180.96
2023-03-05T11:45:23.061Z,99173.63
2023-03-05T11:48:13.610Z,99174.86
2023-03-05T11:50:49.542Z,99171.11
2023-03-05T11:53:25.935Z,99171.48
2023-03-05T11:56:04.585Z,99171.21
2023-03-05T11:58:39.595Z,99167.05
2023-03-05T12:01:27.958Z,99168.48
2023-03-05T12:03:57.022Z,99168.22
2023-03-05T12:06:25.952Z,99172.55
2023-03-05T12:08:56.219Z,99178.36
2023-03-05T12:11:29.056Z,99175.65
2023-03-05T12:14:05.336Z,99179.24
2023-03-05T12:16:39.409Z,99177.46
2023-03-05T12:19:11.428Z,99179.02
2023-03-05T12:21:41.292Z,99175.22
2023-03-05T12:24:40.963Z,99176.66
2023-03-05T12:27:15.119Z,99180.15
2023-03-05T12:29:48.486Z,99176.52
2023-03-05T12:32:29.380Z,99177.05
2023-03-05T12:34:59.506Z,99179.31
2023-03-05T12:37:28.561Z,99180.54
2023-03-05T12:40:09.288Z,99182.16
2023-03-05T12:42:38.960Z,99181.96
2023-03-05T12:45:14.840Z,99177.45
2023-03-05T12:47:45.827Z,99180.36
2023-03-05T12:50:27.361Z,99176.44
2023-03-05T12:52:56.378Z,99177.79
2023-03-05T12:55:40.472Z,99174.48
2023-03-05T12:58:29.315Z,99175.50
2023-03-05T13:01:16.954Z,99170.34
2023-03-05T13:03:45.800Z,99168.11
2023-03-05T13:06:34.725Z,99166.27
2023-03-05T13:09:05.060Z,99162.05
2023-03-05T13:11:35.055Z,99162.15
2023-03-05T13:14:05.458Z,99165.36
2023-03-05T13:16:38.756Z,99168.50
2023-03-05T13:19:14.948Z,99164.27
2023-03-05T13:21:44.974Z,99162.38
2023-03-05T13:24:17.987Z,99157.99
2023-03-05T13:26:49.217Z,99158.41
2023-03-05T13:29:22.394Z,99156.95
2023-03-05T13:31:57.590Z,99155.37
2023-03-05T13:34:32.115Z,99152.63
2023-03-05T13:37:10.380Z,99155.65
2023-03-05T13:39:41.619Z,99155.60
2023-03-05T13:42:18.353Z,99158.66
2023-03-05T13:44:57.157Z,99154.71
2023-03-05T13:47:29.005Z,99150.77
2023-03-05T13:50:00.379Z,99152.45
2023-03-05T13:52:31.377Z,99148.99
2023-03-05T13:55:00.526Z,99150.30
2023-03-05T13:57:37.071Z,99147.02
2023-03-05T14:00:25.552Z,99149.06
2023-03-05T14:03:20.669Z,99148.00
2023-03-05T14:05:54.168Z,99145.60
2023-03-05T14:08:24.427Z,99138.84
2023-03-05T14:10:53.771Z,99137.55
2023-03-05T14:13:24.236Z,99132.53
2023-03-05T14:16:12.659Z,99137.98
2023-03-05T14:18:55.151Z,99141.31
2023-03-05T14:21:24.524Z,99139.41
2023-03-05T14:23:55.323Z,99137.80
2023-03-05T14:26:31.877Z,99144.83
2023-03-05T14:29:09.871Z,99143.44
2023-03-05T14:31:49.515Z,99148.84
2023-03-05T14:34:21.379Z,99146.24
2023-03-05T14:36:52.546Z,99145.83
2023-03-05T14:39:51.262Z,99146.45
2023-03-05T14:42:29.953Z,99144.27
2023-03-05T14:45:01.734Z,99143.13
2023-03-05T14:47:32.654Z,99140.38
2023-03-05T14:50:01.876Z,99136.50
2023-03-05T14:52:31.341Z,99139.72
2023-03-05T14:55:04.995Z,99138.77
2023-03-05T14:57:35.206Z,99139.05
2023-03-05T15:00:04.260Z,99134.62
2023-03-05T15:02:33.471Z,99133.76
2023-03-05T15:05:03.883Z,99141.39
2023-03-05T15:07:33.574Z,99144.52
2023-03-05T15:10:02.779Z,99147.00
2023-03-05T15:12:32.320Z,99147.26
2023-03-05T15:15:01.402Z,99146.89
2023-03-05T15:17:42.779Z,99145.31
2023-03-05T15:20:12.827Z,99143.59
2023-03-05T15:22:41.874Z,99148.80
2023-03-05T15:25:12.598Z,99146.27
2023-03-05T15:27:42.076Z,99152.14
2023-03-05T15:30:30.694Z,99155.48
2023-03-05T15:33:01.872Z,99155.40
2023-03-05T15:35:30.982Z,99156.59
2023-03-05T15:37:59.806Z,99161.88
2023-03-05T15:40:29.062Z,99155.66
2023-03-05T15:42:59.974Z,99158.81
2023-03-05T15:45:31.848Z,99158.70
2023-03-05T15:48:03.698Z,99164.55
2023-03-05T15:50:34.214Z,99164.77
2023-03-05T15:53:03.530Z,99162.73
2023-03-05T15:55:32.649Z,99167.23
2023-03-05T16:00:40.816Z,99168.27
2023-03-05T16:03:10.234Z,99172.27
2023-03-05T16:05:39.924Z,99172.55
2023-03-05T16:08:09.399Z,99174.48
2023-03-05T16:10:40.119Z,99178.16
2023-03-05T16:13:12.853Z,99175.12
2023-03-05T16:15:42.647Z,99170.86
2023-03-05T16:18:13.269Z,99176.64
2023-03-05T16:20:44.460Z,99176.02
2023-03-05T16:23:16.571Z,99180.30
2023-03-05T16:25:48.315Z,99181.25
2023-03-05T16:28:17.444Z,99182.49
2023-03-05T16:30:49.960Z,99182.37
2023-03-05T16:33:19.734Z,99184.52
2023-03-05T16:35:49.299Z,99181.36
2023-03-05T16:38:19.648Z,99186.15
2023-03-05T16:41:07.205Z,99190.20
2023-03-05T16:43:36.898Z,99190.02
2023-03-05T16:46:06.441Z,99191.39
2023-03-05T16:48:36.413Z,99191.50
2023-03-05T16:51:06.260Z,99193.43
2023-03-05T16:53:36.076Z,99194.02
2023-03-05T16:56:05.313Z,99190.31
2023-03-05T16:58:34.723Z,99193.17
2023-03-05T17:01:03.876Z,99190.32
2023-03-05T17:03:33.402Z,99188.95
2023-03-05T17:06:02.394Z,99191.02
2023-03-05T17:08:31.424Z,99188.29
2023-03-05T17:11:00.990Z,99184.39
2023-03-05T17:13:32.663Z,99180.95
2023-03-05T17:16:03.264Z,99178.59
2023-03-05T17:18:33.081Z,99180.68
2023-03-05T17:21:02.701Z,99180.75
2023-03-05T17:23:31.859Z,99186.41
2023-03-05T17:26:04.100Z,99182.41
2023-03-05T17:28:33.451Z,99176.07
2023-03-05T17:31:02.295Z,99170.88
2023-03-05T17:33:32.371Z,99167.35
2023-03-05T17:36:01.307Z,99168.14
2023-03-05T17:38:32.902Z,99171.55
2023-03-05T17:41:02.800Z,99171.11
2023-03-05T17:43:31.737Z,99169.61
2023-03-05T17:46:01.763Z,99175.94
2023-03-05T17:48:31.130Z,99177.66
2023-03-05T17:51:00.900Z,99176.98
2023-03-05T17:53:30.080Z,99176.00
2023-03-05T17:56:02.452Z,99177.23
2023-03-05T17:58:31.757Z,99176.36
2023-03-05T18:01:00.791Z,99174.86
2023-03-05T18:03:30.050Z,99174.06
2023-03-05T18:05:59.770Z,99170.51
2023-03-05T18:08:28.666Z,99166.98
2023-03-05T18:10:57.638Z,99166.59
2023-03-05T18:13:27.693Z,99168.08
2023-03-05T18:16:00.956Z,99169.38
2023-03-05T18:18:30.082Z,99168.48
2023-03-05T18:20:59.814Z,99165.31
2023-03-05T18:23:28.780Z,99167.98
2023-03-05T18:25:57.664Z,99167.58
2023-03-05T18:28:26.784Z,99167.14
2023-03-05T18:30:56.264Z,99170.67
2023-03-05T18:33:25.346Z,99168.21
2023-03-05T18:35:54.712Z,99169.42
2023-03-05T18:38:24.478Z,99172.44
2023-03-05T18:40:54.313Z,99172.61
2023-03-05T18:43:23.977Z,99169.29
2023-03-05T18:45:53.671Z,99170.05
2023-03-05T18:48:23.384Z,99170.35
2023-03-05T18:50:52.773Z,99166.30
2023-03-05T18:53:23.126Z,99165.52
2023-03-05T18:55:52.514Z,99164.26
2023-03-05T18:58:21.700Z,99163.50
2023-03-05T19:00:52.371Z,99166.92
2023-03-05T19:03:23.001Z,99168.65
2023-03-05T19:05:52.587Z,99171.95
2023-03-05T19:08:21.649Z,99168.23
2023-03-05T19:10:53.864Z,99167.80
2023-03-05T19:13:41.320Z,99165.71
2023-03-05T19:16:17.496Z,99163.14
2023-03-05T19:19:16.958Z,99167.90
2023-03-05T19:21:47.500Z,99171.52
2023-03-05T19:24:17.005Z,99176.53
2023-03-05T19:26:45.832Z,99176.39
2023-03-05T19:29:15.895Z,99176.44
2023-03-05T19:31:44.694Z,99172.69
2023-03-05T19:34:13.762Z,99171.88
2023-03-05T19:36:43.320Z,99167.94
2023-03-05T19:39:12.210Z,99171.73
2023-03-05T19:41:41.187Z,99169.92
2023-03-05T19:44:10.031Z,99172.02
2023-03-05T19:46:42.106Z,99174.84
2023-03-05T19:49:11.279Z,99175.52
2023-03-05T19:51:40.998Z,99172.41
2023-03-05T19:54:11.149Z,99173.70
2023-03-05T19:56:40.440Z,99176.45
2023-03-05T19:59:09.469Z,99173.57
2023-03-05T20:01:38.981Z,99170.72
2023-03-05T20:04:08.437Z,99171.16
2023-03-05T20:06:37.460Z,99170.70
2023-03-05T20:09:12.873Z,99172.83
2023-03-05T20:11:42.253Z,99171.61
2023-03-05T20:14:13.734Z,99172.08
2023-03-05T20:16:43.603Z,99165.94
2023-03-05T20:19:16.683Z,99169.48
2023-03-05T20:21:45.756Z,99163.67
2023-03-05T20:24:16.764Z,99164.01
2023-03-05T20:26:46.125Z,99161.33
2023-03-05T20:29:17.613Z,99162.22
2023-03-05T20:31:47.551Z,99159.37
2023-03-05T20:34:17.211Z,99155.66
2023-03-05T20:36:47.336Z,99157.89
2023-03-05T20:39:16.900Z,99157.99
2023-03-05T20:41:47.430Z,99152.48
2023-03-05T20:44:18.678Z,99153.84
2023-03-05T20:47:23.445Z,99150.64
2023-03-05T20:50:14.832Z,99147.22
2023-03-05T20:52:49.137Z,99150.26
2023-03-05T20:55:19.123Z,99147.20
2023-03-05T20:57:48.191Z,99139.00
2023-03-05T21:00:17.558Z,99134.54
2023-03-05T21:02:46.575Z,99129.99
2023-03-05T21:05:15.620Z,99123.95
2023-03-05T21:07:44.745Z,99125.34
2023-03-05T21:10:14.825Z,99126.64
2023-03-05T21:12:47.459Z,99124.52
2023-03-05T21:15:20.936Z,99128.55
2023-03-05T21:17:52.465Z,99128.79
2023-03-05T21:20:22.564Z,99124.77
2023-03-05T21:22:51.819Z,99125.12
2023-03-05T21:25:21.374Z,99130.35
2023-03-05T21:27:52.761Z,99134.37
2023-03-05T21:30:21.949Z,99132.46
2023-03-05T21:32:50.857Z,99132.55
2023-03-05T21:35:20.077Z,99133.39
2023-03-05T21:37:53.076Z,99133.67
2023-03-05T21:40:22.510Z,99137.36
2023-03-05T21:42:53.206Z,99135.17
2023-03-05T21:45:23.088Z,99132.58
2023-03-05T21:47:54.523Z,99131.40
2023-03-05T21:50:24.256Z,99128.64
2023-03-05T21:52:54.412Z,99123.36
2023-03-05T21:56:05.757Z,99129.23
2023-03-05T21:58:47.709Z,99127.92
2023-03-05T22:01:18.840Z,99129.48
2023-03-05T22:03:48.009Z,99128.10
2023-03-05T22:06:18.114Z,99127.20
2023-03-05T22:08:47.731Z,99118.98
2023-03-05T22:11:22.994Z,99116.46
2023-03-05T22:13:52.188Z,99110.62
2023-03-05T22:16:22.824Z,99116.88
2023-03-05T22:18:53.884Z,99111.69
2023-03-05T22:21:25.761Z,99114.36
2023-03-05T22:23:57.556Z,99113.33
2023-03-05T22:26:27.161Z,99115.65
2023-03-05T22:28:56.101Z,99118.39
2023-03-05T22:31:26.016Z,99113.84
2023-03-05T22:33:55.016Z,99114.92
2023-03-05T22:36:24.417Z,99121.11
2023-03-05T22:38:53.322Z,99119.73
2023-03-05T22:41:24.164Z,99120.61
2023-03-05T22:43:53.068Z,99121.66
2023-03-05T22:46:22.965Z,99118.04
2023-03-05T22:48:52.256Z,99111.77
2023-03-05T22:51:21.320Z,99112.18
2023-03-05T22:53:50.551Z,99110.22
2023-03-05T22:56:20.412Z,99105.70
2023-03-05T22:58:49.594Z,99103.98
2023-03-05T23:01:22.388Z,99103.90
2023-03-05T23:04:04.482Z,99103.13
2023-03-05T23:06:42.630Z,99105.66
2023-03-05T23:09:11.565Z,99100.14
2023-03-05T23:11:40.651Z,99106.14
2023-03-05T23:14:09.506Z,99100.52
2023-03-05T23:16:38.716Z,99101.20
2023-03-05T23:19:09.387Z,99096.20
2023-03-05T23:21:38.620Z,99094.69
2023-03-05T23:24:08.430Z,99094.45
2023-03-05T23:26:37.322Z,99090.50
2023-03-05T23:29:06.385Z,99095.11
2023-03-05T23:31:35.592Z,99090.88
2023-03-05T23:34:04.724Z,99087.14
2023-03-05T23:36:33.930Z,99086.61
2023-03-05T23:39:02.843Z,99081.70
2023-03-05T23:41:31.645Z,99082.86
2023-03-05T23:44:21.136Z,99082.14
2023-03-05T23:46:51.162Z,99081.41
2023-03-05T23:49:20.055Z,99074.14
2023-03-05T23:51:49.458Z,99071.05
2023-03-05T23:54:18.310Z,99071.20
2023-03-05T23:56:47.472Z,99066.21
2023-03-05T23:59:16.744Z,99063.89
